Flight Track Log - Related Links

Times and Time Zones

All times are in EDT time to prevent confusion due to time zone crossing. See the N775AH flight status page for this flight to view local times or setup timezone preferences in your user account.


Time Position Orientation Groundspeed Altitude Reporting Facility
EDT Latitude Longitude Course Direction KTS MPH feet Rate Location/Type
Mon 10:35:27 PM 38.5000 -78.0667 195° South 174 200 6,300  Level Potomac TRACON
Mon 10:36:27 PM 38.4500 -78.0833 195° South 172 198 5,800 -574 Descending Potomac TRACON
Mon 10:37:22 PM 38.4000 -78.0833 180° South 173 199 5,200 -574 Descending Potomac TRACON
Mon 10:38:22 PM 38.3500 -78.1000 195° South 184 212 4,700 -350 Descending Potomac TRACON
Mon 10:39:22 PM 38.3000 -78.1167 195° South 188 216 4,500 -100 Descending Potomac TRACON
Mon 10:40:22 PM 38.2500 -78.1333 195° South 174 200 4,500  Level Potomac TRACON
Mon 10:41:27 PM 38.2000 -78.1500 195° South 174 200 4,500  Level Potomac TRACON
Mon 10:42:27 PM 38.1667 -78.1667 201° Southwest 175 201 4,500  Level Potomac TRACON
Mon 10:43:27 PM 38.1167 -78.1667 180° South 172 198 4,500  Level Potomac TRACON
Mon 10:44:33 PM 38.0667 -78.1833 195° South 176 203 4,500  Level Potomac TRACON
Mon 10:45:27 PM 38.0167 -78.2000 195° South 177 204 4,500  Level Potomac TRACON
Mon 10:46:27 PM 37.9667 -78.2167 195° South 175 201 4,500  Level Potomac TRACON
Mon 10:47:28 PM 37.9167 -78.2333 195° South 174 200 4,500  Level Potomac TRACON
Mon 10:48:28 PM 37.8833 -78.2333 180° South 183 211 4,500  Level Potomac TRACON
Mon 10:49:07 PM 37.8478 -78.2506 201° Southwest 178 205 4,500  Level Washington Center
Mon 10:50:07 PM 37.8014 -78.2647 194° South 178 205 4,500  Level Washington Center
Mon 10:51:07 PM 37.7572 -78.2789 194° South 178 205 4,500  Level Washington Center
Mon 10:52:07 PM 37.7111 -78.2903 191° South 178 205 4,500  Level Washington Center
Mon 10:53:07 PM 37.6650 -78.3019 191° South 178 205 4,500  Level Washington Center
Mon 10:54:07 PM 37.6167 -78.3158 193° South 183 211 4,500  Level Washington Center
Mon 10:55:07 PM 37.5728 -78.3272 192° South 183 211 4,500  Level Washington Center
Mon 10:56:07 PM 37.5203 -78.3439 194° South 183 211 4,500  Level Washington Center
Mon 10:57:07 PM 37.4739 -78.3553 191° South 178 205 4,500  Level Washington Center
Mon 10:58:07 PM 37.4278 -78.3692 193° South 178 205 4,500  Level Washington Center
Mon 10:59:07 PM 37.3817 -78.3806 191° South 178 205 4,500  Level Washington Center
Mon 11:00:07 PM 37.3397 -78.3922 192° South 178 205 4,500  Level Washington Center
Mon 11:01:07 PM 37.2936 -78.4036 191° South 178 205 4,500 -150 Level Washington Center
Mon 11:02:07 PM 37.2431 -78.4172 192° South 183 211 4,200 -150 Descending Washington Center
Mon 11:03:07 PM 37.1969 -78.4314 194° South 183 211 4,200  Level Washington Center
Mon 11:04:07 PM 37.1444 -78.4475 194° South 183 211 4,200  Level Washington Center
Mon 11:05:07 PM 37.0983 -78.4564 189° South 183 211 4,200  Level Washington Center
Mon 11:06:07 PM 37.0500 -78.4700 193° South 183 211 4,200  Level Washington Center
Mon 11:07:07 PM 37.0017 -78.4864 195° South 183 211 4,200  Level Washington Center
Mon 11:08:07 PM 36.9594 -78.4978 192° South 183 211 4,200 -100 Level Washington Center
Mon 11:09:07 PM 36.9092 -78.5089 190° South 183 211 4,000 -200 Descending Washington Center
Mon 11:10:07 PM 36.8631 -78.5228 194° South 183 211 3,800 -150 Descending Washington Center
Mon 11:11:07 PM 36.8106 -78.5364 192° South 183 211 3,700 -50 Descending Washington Center
Mon 11:12:07 PM 36.7600 -78.5528 195° South 183 211 3,700  Level Washington Center
Mon 11:13:07 PM 36.7075 -78.5714 196° South 183 211 3,700 -100 Level Washington Center
Mon 11:14:07 PM 36.6547 -78.5900 196° South 188 216 3,500 -211 Descending Washington Center
Mon 11:15:01 PM 36.6083 -78.6064 196° South 190 219 3,300 -200 Descending Washington Center
Mon 11:16:07 PM 36.5558 -78.6250 196° South 188 216 3,100 -209 Descending Washington Center
Mon 11:16:56 PM 36.5136 -78.6414 197° South 186 214 2,900 -218 Descending Washington Center
Mon 11:17:57 PM 36.4633 -78.6575 194° South 187 215 2,700 -149 Descending Washington Center
Mon 11:18:57 PM 36.4128 -78.6736 194° South 189 217 2,600 -50 Descending Washington Center
Mon 11:19:58 PM 36.3622 -78.6922 197° South 187 215 2,600  Level Washington Center
Mon 11:20:46 PM 36.3219 -78.7089 198° South 184 212 2,600  Level Washington Center
Mon 11:21:07 PM 36.3094 -78.7108 187° South 188 216 2,600  Level Washington Center
Mon 11:21:53 PM 36.2675 -78.7247 195° South 187 215 2,600  Level Washington Center
Mon 11:22:54 PM 36.2169 -78.7433 197° South 187 215 2,600  Level Washington Center
Mon 11:23:54 PM 36.1664 -78.7592 194° South 186 214 2,600  Level Washington Center
Mon 11:24:55 PM 36.1158 -78.7778 197° South 187 215 2,600  Level Washington Center
Mon 11:25:55 PM 36.0631 -78.7986 198° South 188 216 2,600  Level Washington Center
Mon 11:26:56 PM 36.0164 -78.8225 202° Southwest 190 219 2,600  Level Washington Center
Mon 11:27:50 PM 35.9719 -78.8489 206° Southwest 190 219 2,600  Level Washington Center
Mon 11:28:51 PM 35.9253 -78.8753 205° Southwest 189 217 2,600 -49 Level Washington Center
Mon 11:29:52 PM 35.8744 -78.9039 205° Southwest 190 219 2,500 -298 Descending Washington Center
Mon 11:30:52 PM 35.8375 -78.8792 152° Southeast 166 191 2,000 -545 Descending Washington Center
Mon 11:31:53 PM 35.8306 -78.8353 101° East 128 147 1,400 -590 Descending Washington Center
Mon 11:32:54 PM 35.8542 -78.8108 40° Northeast 92 106 800 -590 Descending Washington Center
Mon 11:34:00 PM 35.8667 -78.7833 90° East  Level FlightAware Approximate

Login

Don't have an account? Register now (free) for customized features, flight alerts, and more!